createdAt,value
2022-10-08T00:04:41.874Z,10.50
2022-10-08T00:09:47.789Z,10.63
2022-10-08T00:14:49.331Z,10.65
2022-10-08T00:19:59.817Z,10.25
2022-10-08T00:25:17.840Z,11.30
2022-10-08T00:30:19.421Z,9.20
2022-10-08T00:35:23.898Z,10.55
2022-10-08T00:40:25.528Z,9.52
2022-10-08T00:45:30.997Z,9.90
2022-10-08T00:50:34.723Z,11.05
2022-10-08T00:55:43.341Z,11.68
2022-10-08T01:00:46.039Z,13.00
2022-10-08T01:06:37.216Z,11.95
2022-10-08T01:11:50.461Z,10.75
2022-10-08T01:17:13.770Z,10.35
2022-10-08T01:22:52.878Z,10.32
2022-10-08T01:28:00.986Z,10.50
2022-10-08T01:33:23.106Z,10.57
2022-10-08T01:38:27.657Z,9.60
2022-10-08T01:43:34.098Z,11.45
2022-10-08T01:48:40.822Z,9.05
2022-10-08T01:53:45.846Z,10.00
2022-10-08T01:59:06.071Z,11.20
2022-10-08T02:04:27.493Z,13.20
2022-10-08T02:09:32.104Z,14.40
2022-10-08T02:14:39.584Z,14.45
2022-10-08T02:20:17.129Z,15.82
2022-10-08T02:25:24.477Z,14.77
2022-10-08T02:30:32.136Z,17.60
2022-10-08T02:35:40.411Z,15.82
2022-10-08T02:40:47.349Z,18.70
2022-10-08T02:46:03.320Z,16.60
2022-10-08T02:51:11.071Z,18.48
2022-10-08T02:56:24.315Z,18.00
2022-10-08T03:01:37.751Z,16.60
2022-10-08T03:06:41.773Z,17.98
2022-10-08T03:11:48.484Z,15.85
2022-10-08T03:16:54.059Z,16.05
2022-10-08T03:21:56.589Z,15.25
2022-10-08T03:26:58.720Z,15.90
2022-10-08T03:32:00.413Z,15.88
2022-10-08T03:37:11.935Z,16.33
2022-10-08T03:42:13.524Z,15.68
2022-10-08T03:47:23.921Z,15.32
2022-10-08T03:52:25.495Z,15.40
2022-10-08T03:57:29.967Z,15.45
2022-10-08T04:02:32.576Z,14.25
2022-10-08T04:07:41.960Z,14.30
2022-10-08T04:12:43.472Z,14.77
2022-10-08T04:17:45.067Z,13.98
2022-10-08T04:22:49.026Z,13.32
2022-10-08T04:27:53.967Z,13.02
2022-10-08T04:32:56.136Z,13.02
2022-10-08T04:37:59.966Z,13.35
2022-10-08T04:43:12.048Z,12.02
2022-10-08T04:48:16.686Z,11.68
2022-10-08T04:53:25.717Z,13.05
2022-10-08T04:58:27.305Z,11.13
2022-10-08T05:03:28.806Z,10.95
2022-10-08T05:08:36.248Z,13.45
2022-10-08T05:13:37.852Z,11.40
2022-10-08T05:18:41.412Z,17.33
2022-10-08T05:23:43.448Z,10.88
2022-10-08T05:28:49.327Z,11.18
2022-10-08T05:33:51.450Z,11.35
2022-10-08T05:38:53.795Z,10.60
2022-10-08T05:43:56.519Z,11.02
2022-10-08T05:49:00.688Z,12.27
2022-10-08T05:54:05.998Z,12.32
2022-10-08T05:59:07.702Z,10.93
2022-10-08T06:04:12.491Z,11.98
2022-10-08T06:09:20.537Z,12.38
2022-10-08T06:14:22.226Z,12.88
2022-10-08T06:19:23.775Z,11.75
2022-10-08T06:24:42.039Z,12.82
2022-10-08T06:29:48.015Z,11.75
2022-10-08T06:34:54.131Z,12.52
2022-10-08T06:39:55.647Z,12.32
2022-10-08T06:45:12.025Z,11.38
2022-10-08T06:50:18.039Z,10.80
2022-10-08T06:55:31.204Z,10.60
2022-10-08T07:00:36.182Z,11.02
2022-10-08T07:05:43.864Z,9.52
2022-10-08T07:10:45.391Z,9.23
2022-10-08T07:15:46.936Z,8.40
2022-10-08T07:21:18.996Z,9.35
2022-10-08T07:26:26.543Z,7.47
2022-10-08T07:31:31.317Z,7.88
2022-10-08T07:36:48.058Z,7.85
2022-10-08T07:41:54.183Z,7.13
2022-10-08T07:46:56.868Z,7.40
2022-10-08T07:51:58.395Z,7.07
2022-10-08T07:57:02.033Z,6.45
2022-10-08T08:02:12.125Z,6.78
2022-10-08T08:07:18.076Z,7.25
2022-10-08T08:12:19.609Z,5.55
2022-10-08T08:17:21.163Z,5.38
2022-10-08T08:22:30.085Z,5.88
2022-10-08T08:27:31.648Z,4.70
2022-10-08T08:32:33.446Z,5.10
2022-10-08T08:37:36.113Z,4.60
2022-10-08T08:42:54.169Z,4.20
2022-10-08T08:48:07.396Z,3.50
2022-10-08T08:53:10.782Z,3.30
2022-10-08T08:58:58.545Z,2.97
2022-10-08T09:04:50.260Z,2.63
2022-10-08T09:09:53.916Z,2.70
2022-10-08T09:15:23.604Z,2.60
2022-10-08T09:20:25.756Z,2.10
2022-10-08T09:25:36.760Z,2.08
2022-10-08T09:30:44.998Z,2.25
2022-10-08T09:35:49.602Z,2.17
2022-10-08T09:41:17.508Z,2.22
2022-10-08T09:46:30.923Z,1.80
2022-10-08T09:51:34.849Z,1.90
2022-10-08T09:56:36.462Z,2.20
2022-10-08T10:01:45.789Z,2.08
2022-10-08T10:06:48.400Z,1.80
2022-10-08T10:12:06.037Z,1.70
2022-10-08T10:17:18.098Z,1.83
2022-10-08T10:22:27.828Z,1.77
2022-10-08T10:27:36.161Z,1.83
2022-10-08T10:32:43.998Z,1.17
2022-10-08T10:38:01.036Z,1.77
2022-10-08T10:43:33.346Z,1.52
2022-10-08T10:48:35.052Z,1.48
2022-10-08T10:54:06.333Z,1.80
2022-10-08T10:59:51.803Z,1.90
2022-10-08T11:05:29.522Z,1.70
2022-10-08T11:10:39.825Z,1.75
2022-10-08T11:15:46.313Z,1.67
2022-10-08T11:21:12.736Z,1.70
2022-10-08T11:26:23.089Z,1.40
2022-10-08T11:31:41.556Z,1.65
2022-10-08T11:36:50.087Z,1.50
2022-10-08T11:42:10.139Z,1.52
2022-10-08T11:47:40.111Z,1.35
2022-10-08T11:58:06.545Z,0.75
2022-10-08T12:03:39.662Z,0.80
2022-10-08T12:08:58.906Z,1.10
2022-10-08T12:14:12.419Z,1.50
2022-10-08T12:19:36.136Z,1.40
2022-10-08T12:24:37.647Z,1.35
2022-10-08T12:29:57.712Z,1.00
2022-10-08T12:35:01.570Z,0.75
2022-10-08T12:40:29.052Z,0.85
2022-10-08T12:45:39.977Z,0.90
2022-10-08T12:50:47.525Z,0.80
2022-10-08T12:55:53.913Z,0.80
2022-10-08T13:00:59.563Z,0.95
2022-10-08T13:06:34.062Z,0.70
2022-10-08T13:11:35.776Z,0.70
2022-10-08T13:16:49.544Z,0.82
2022-10-08T13:22:21.303Z,0.70
2022-10-08T13:27:29.158Z,0.80
2022-10-08T13:32:35.212Z,0.70
2022-10-08T13:37:39.200Z,0.60
2022-10-08T13:42:44.565Z,0.60
2022-10-08T13:47:46.894Z,0.32
2022-10-08T13:52:54.334Z,0.50
2022-10-08T13:58:02.188Z,1.10
2022-10-08T14:03:03.819Z,0.45
2022-10-08T14:08:12.842Z,0.50
2022-10-08T14:13:16.129Z,0.60
2022-10-08T14:18:18.287Z,0.63
2022-10-08T14:23:33.396Z,0.50
2022-10-08T14:28:35.313Z,0.73
2022-10-08T14:33:36.923Z,0.57
2022-10-08T14:38:38.440Z,0.75
2022-10-08T14:43:40.969Z,1.05
2022-10-08T14:48:42.485Z,0.73
2022-10-08T14:53:44.055Z,0.80
2022-10-08T14:58:45.607Z,0.70
2022-10-08T15:03:48.369Z,0.70
2022-10-08T15:08:49.964Z,0.98
2022-10-08T15:13:55.384Z,0.85
2022-10-08T15:18:56.913Z,0.90
2022-10-08T15:23:58.438Z,0.93
2022-10-08T15:29:00.833Z,0.70
2022-10-08T15:34:06.401Z,0.60
2022-10-08T15:39:12.046Z,0.63
2022-10-08T15:44:22.084Z,0.50
2022-10-08T15:54:25.400Z,0.70
2022-10-08T15:59:26.930Z,1.00
2022-10-08T16:04:30.492Z,0.73
2022-10-08T16:09:36.435Z,0.75
2022-10-08T16:14:37.944Z,0.68
2022-10-08T16:19:42.406Z,1.08
2022-10-08T16:25:18.255Z,0.70
2022-10-08T16:30:19.781Z,0.82
2022-10-08T16:35:21.279Z,0.90
2022-10-08T16:40:22.853Z,1.30
2022-10-08T16:45:24.440Z,1.20
2022-10-08T16:50:25.992Z,2.05
2022-10-08T16:55:38.404Z,1.52
2022-10-08T17:00:39.913Z,2.03
2022-10-08T17:05:42.299Z,1.75
2022-10-08T17:10:54.519Z,2.00
2022-10-08T17:16:02.861Z,2.03
2022-10-08T17:21:05.848Z,2.75
2022-10-08T17:26:13.748Z,3.08
2022-10-08T17:31:24.544Z,2.90
2022-10-08T17:36:28.976Z,2.40
2022-10-08T17:41:54.425Z,1.63
2022-10-08T17:46:55.975Z,2.80
2022-10-08T17:51:57.508Z,2.50
2022-10-08T17:57:06.428Z,1.67
2022-10-08T18:02:08.548Z,1.90
2022-10-08T18:07:12.250Z,1.77
2022-10-08T18:12:24.895Z,1.58
2022-10-08T18:17:48.324Z,1.92
2022-10-08T18:22:54.450Z,1.83
2022-10-08T18:28:06.493Z,2.90
2022-10-08T18:33:08.222Z,3.15
2022-10-08T18:38:18.443Z,2.30
2022-10-08T18:43:19.989Z,2.92
2022-10-08T18:48:21.548Z,2.70
2022-10-08T18:53:23.071Z,2.80
2022-10-08T18:58:24.641Z,2.50
2022-10-08T19:03:28.279Z,3.00
2022-10-08T19:08:36.510Z,2.83
2022-10-08T19:13:49.075Z,3.67
2022-10-08T19:18:59.243Z,3.95
2022-10-08T19:24:08.134Z,4.10
2022-10-08T19:29:21.987Z,3.92
2022-10-08T19:35:06.294Z,4.30
2022-10-08T19:40:08.192Z,4.00
2022-10-08T19:45:30.391Z,3.42
2022-10-08T19:50:48.516Z,4.05
2022-10-08T19:55:54.537Z,3.65
2022-10-08T20:01:03.716Z,3.70
2022-10-08T20:06:07.676Z,4.03
2022-10-08T20:11:13.080Z,4.15
2022-10-08T20:16:21.469Z,3.85
2022-10-08T20:21:24.872Z,3.75
2022-10-08T20:26:31.554Z,3.08
2022-10-08T20:31:43.289Z,2.65
2022-10-08T20:36:46.876Z,3.10
2022-10-08T20:41:48.782Z,3.22
2022-10-08T20:46:50.866Z,2.83
2022-10-08T20:51:54.533Z,3.00
2022-10-08T20:56:56.826Z,2.80
2022-10-08T21:01:58.420Z,3.40
2022-10-08T21:07:00.829Z,3.13
2022-10-08T21:12:12.621Z,3.35
2022-10-08T21:17:14.165Z,3.55
2022-10-08T21:22:18.575Z,4.07
2022-10-08T21:27:20.099Z,3.85
2022-10-08T21:32:21.669Z,3.90
2022-10-08T21:37:23.231Z,3.85
2022-10-08T21:42:24.753Z,3.53
2022-10-08T21:47:26.595Z,3.50
2022-10-08T21:52:28.119Z,3.53
2022-10-08T21:57:29.659Z,4.15
2022-10-08T22:02:31.248Z,4.80
2022-10-08T22:07:32.803Z,4.20
2022-10-08T22:12:34.324Z,4.50
2022-10-08T22:17:35.873Z,4.85
2022-10-08T22:22:37.390Z,5.43
2022-10-08T22:27:38.925Z,6.15
2022-10-08T22:32:40.460Z,5.22
2022-10-08T22:37:42.627Z,4.80
2022-10-08T22:42:44.225Z,5.35
2022-10-08T22:47:46.362Z,5.70
2022-10-08T22:52:50.055Z,6.10
2022-10-08T22:57:52.049Z,6.38
2022-10-08T23:02:54.687Z,5.70
2022-10-08T23:07:56.736Z,7.32
2022-10-08T23:12:58.271Z,5.88
2022-10-08T23:17:59.800Z,5.18
2022-10-08T23:23:01.334Z,5.30
2022-10-08T23:28:02.922Z,4.78
2022-10-08T23:33:06.584Z,4.85
2022-10-08T23:38:18.657Z,4.10
2022-10-08T23:43:20.316Z,4.40
2022-10-08T23:48:22.134Z,5.03
2022-10-08T23:53:23.708Z,5.30
2022-10-08T23:58:25.764Z,4.75
